Time,TemperatureF,DewpointF,PressureIn,WindDirection,WindDirectionDegrees,WindSpeedMPH,WindSpeedGustMPH,Humidity,HourlyPrecipIn,Conditions,Clouds,dailyrainin,SoftwareType,DateUTC
2014-01-09 00:13:00,30.0,15.0,-100.00,SSW,198,2.0,3.0,54,0.00,,,0.00,,2014-01-09 05:13:00,
2014-01-09 00:22:00,33.0,15.0,-100.00,South,181,4.0,5.0,49,0.00,,,0.00,,2014-01-09 05:22:00,
2014-01-09 00:33:00,33.0,15.0,-100.00,South,181,4.0,5.0,49,0.00,,,0.00,,2014-01-09 05:33:00,
2014-01-09 01:52:00,34.0,17.0,-100.00,SSW,210,2.0,3.0,49,0.00,,,0.00,,2014-01-09 06:52:00,
2014-01-09 02:12:00,33.0,17.0,-100.00,SSW,198,3.0,4.0,51,0.00,,,0.00,,2014-01-09 07:12:00,
2014-01-09 02:52:00,33.0,17.0,-100.00,South,188,3.0,4.0,53,0.00,,,0.00,,2014-01-09 07:52:00,
2014-01-09 03:12:00,33.0,17.0,-100.00,SSE,155,4.0,4.0,51,0.00,,,0.00,,2014-01-09 08:12:00,
2014-01-09 03:22:00,32.0,18.0,-100.00,SSE,165,2.0,2.0,55,0.00,,,0.00,,2014-01-09 08:22:00,
2014-01-09 03:31:00,29.0,19.0,-100.00,NNW,339,1.0,2.0,68,0.00,,,0.00,,2014-01-09 08:31:00,
2014-01-09 03:32:00,32.0,18.0,-100.00,SSE,165,2.0,2.0,55,0.00,,,0.00,,2014-01-09 08:32:00,
2014-01-09 03:52:00,32.0,18.0,-100.00,SSE,167,1.0,2.0,57,0.00,,,0.00,,2014-01-09 08:52:00,
2014-01-09 04:12:00,29.0,19.0,-100.00,NNW,339,1.0,2.0,68,0.00,,,0.00,,2014-01-09 09:12:00,
2014-01-09 04:22:00,29.0,19.0,-100.00,NNW,339,1.0,2.0,68,0.00,,,0.00,,2014-01-09 09:22:00,
2014-01-09 04:50:00,28.0,19.0,-100.00,North,11,2.0,3.0,70,0.00,,,0.00,,2014-01-09 09:50:00,
2014-01-09 04:53:00,27.0,19.0,-100.00,North,349,1.0,2.0,69,0.00,,,0.00,,2014-01-09 09:53:00,
2014-01-09 05:13:00,29.0,18.0,-100.00,North,8,1.0,2.0,65,0.00,,,0.00,,2014-01-09 10:13:00,
2014-01-09 05:23:00,28.0,19.0,-100.00,North,11,2.0,3.0,70,0.00,,,0.00,,2014-01-09 10:23:00,
2014-01-09 05:33:00,28.0,19.0,-100.00,North,11,2.0,3.0,70,0.00,,,0.00,,2014-01-09 10:33:00,
2014-01-09 05:43:00,28.0,19.0,-100.00,North,11,2.0,3.0,70,0.00,,,0.00,,2014-01-09 10:43:00,
2014-01-09 06:10:00,24.0,18.0,-100.00,NNW,335,2.0,3.0,79,0.00,,,0.00,,2014-01-09 11:10:00,
2014-01-09 06:12:00,27.0,18.0,-100.00,West,270,0.0,1.0,70,0.00,,,0.00,,2014-01-09 11:12:00,
2014-01-09 06:22:00,26.0,18.0,-100.00,SSW,200,1.0,2.0,72,0.00,,,0.00,,2014-01-09 11:22:00,
2014-01-09 06:33:00,26.0,18.0,-100.00,SSW,200,1.0,2.0,72,0.00,,,0.00,,2014-01-09 11:33:00,
2014-01-09 06:52:00,24.0,18.0,-100.00,NNW,335,2.0,3.0,79,0.00,,,0.00,,2014-01-09 11:52:00,
2014-01-09 07:02:00,24.0,18.0,-100.00,NNW,335,2.0,3.0,79,0.00,,,0.00,,2014-01-09 12:02:00,
2014-01-09 07:22:00,24.0,18.0,-100.00,North,8,1.0,1.0,77,0.00,,,0.00,,2014-01-09 12:22:00,
2014-01-09 07:32:00,24.0,18.0,-100.00,North,8,1.0,1.0,77,0.00,,,0.00,,2014-01-09 12:32:00,
2014-01-09 07:52:00,25.0,18.0,-100.00,SW,222,1.0,2.0,75,0.00,,,0.00,,2014-01-09 12:52:00,
2014-01-09 08:12:00,24.0,18.0,-100.00,SW,222,1.0,1.0,76,0.00,,,0.00,,2014-01-09 13:12:00,
2014-01-09 08:22:00,24.0,18.0,-100.00,SW,222,1.0,1.0,76,0.00,,,0.00,,2014-01-09 13:22:00,
2014-01-09 08:52:00,27.0,18.0,-100.00,ENE,68,4.0,6.0,67,0.00,,,0.00,,2014-01-09 13:52:00,
2014-01-09 09:11:00,28.0,19.0,-100.00,North,4,3.0,4.0,70,0.00,,,0.00,,2014-01-09 14:11:00,
2014-01-09 09:52:00,32.0,20.0,-100.00,NNW,329,3.0,4.0,61,0.00,,,0.00,,2014-01-09 14:52:00,
2014-01-09 10:11:00,38.0,18.0,-100.00,NE,49,3.0,4.0,43,0.00,,,0.00,,2014-01-09 15:11:00,
2014-01-09 11:23:00,40.0,18.0,-100.00,North,353,5.0,6.0,41,0.00,,,0.00,,2014-01-09 16:23:00,
2014-01-09 13:22:00,46.0,19.0,-100.00,ESE,103,2.0,3.0,33,0.00,,,0.00,,2014-01-09 18:22:00,
2014-01-09 19:32:00,40.0,18.0,-100.00,SSW,213,2.0,2.0,40,0.00,,,0.00,,2014-01-10 00:32:00,
2014-01-09 19:52:00,40.0,18.0,-100.00,SW,215,2.0,3.0,40,0.00,,,0.00,,2014-01-10 00:52:00,
2014-01-09 20:11:00,39.0,18.0,-100.00,SSE,162,2.0,4.0,43,0.00,,,0.00,,2014-01-10 01:11:00,
2014-01-09 20:22:00,39.0,19.0,-100.00,WNW,288,1.0,2.0,44,0.00,,,0.00,,2014-01-10 01:22:00,
2014-01-09 20:30:00,38.0,19.0,-100.00,NW,312,2.0,3.0,46,0.00,,,0.00,,2014-01-10 01:30:00,
2014-01-09 20:32:00,39.0,19.0,-100.00,WNW,288,1.0,2.0,44,0.00,,,0.00,,2014-01-10 01:32:00,
2014-01-09 20:52:00,37.0,19.0,-100.00,NNW,336,2.0,3.0,47,0.00,,,0.00,,2014-01-10 01:52:00,
2014-01-09 21:11:00,38.0,19.0,-100.00,NW,312,2.0,3.0,46,0.00,,,0.00,,2014-01-10 02:11:00,
2014-01-09 21:22:00,38.0,19.0,-100.00,NW,312,2.0,3.0,46,0.00,,,0.00,,2014-01-10 02:22:00,
2014-01-09 21:52:00,38.0,20.0,-100.00,WSW,250,0.0,2.0,47,0.00,,,0.00,,2014-01-10 02:52:00,
2014-01-09 22:11:00,38.0,22.0,-100.00,NW,306,1.0,1.0,51,0.00,,,0.00,,2014-01-10 03:11:00,
2014-01-09 22:22:00,38.0,20.0,-100.00,South,186,2.0,3.0,48,0.00,,,0.00,,2014-01-10 03:22:00,
2014-01-09 22:33:00,38.0,20.0,-100.00,South,186,2.0,3.0,48,0.00,,,0.00,,2014-01-10 03:33:00,
2014-01-09 22:54:00,39.0,19.0,-100.00,SSW,198,5.0,7.0,44,0.00,,,0.00,,2014-01-10 03:54:00,
2014-01-09 23:13:00,40.0,19.0,-100.00,SSW,200,6.0,8.0,42,0.00,,,0.00,,2014-01-10 04:13:00,
2014-01-09 23:23:00,39.0,20.0,-100.00,SSE,165,4.0,8.0,44,0.00,,,0.00,,2014-01-10 04:23:00,
2014-01-09 23:33:00,39.0,20.0,-100.00,SSE,165,4.0,8.0,44,0.00,,,0.00,,2014-01-10 04:33:00,
2014-01-09 23:53:00,39.0,19.0,-100.00,SSW,209,6.0,7.0,44,0.00,,,0.00,,2014-01-10 04:53:00,